sensor_id;sensor_type;location;lat;lon;timestamp;P1;durP1;ratioP1;P2;durP2;ratioP2
72125;SDS011;59999;51.676;22.650;2023-10-09T00:01:44;6.17;;;1.10;;
72125;SDS011;59999;51.676;22.650;2023-10-09T00:04:11;6.38;;;1.13;;
72125;SDS011;59999;51.676;22.650;2023-10-09T00:06:39;5.40;;;1.00;;
72125;SDS011;59999;51.676;22.650;2023-10-09T00:09:07;4.93;;;1.02;;
72125;SDS011;59999;51.676;22.650;2023-10-09T00:12:05;5.30;;;0.70;;
72125;SDS011;59999;51.676;22.650;2023-10-09T00:14:35;4.63;;;0.87;;
72125;SDS011;59999;51.676;22.650;2023-10-09T00:17:04;5.72;;;0.75;;
72125;SDS011;59999;51.676;22.650;2023-10-09T00:19:36;6.38;;;1.00;;
72125;SDS011;59999;51.676;22.650;2023-10-09T00:22:02;4.95;;;1.27;;
72125;SDS011;59999;51.676;22.650;2023-10-09T00:24:47;7.93;;;1.20;;
72125;SDS011;59999;51.676;22.650;2023-10-09T00:27:15;5.17;;;1.13;;
72125;SDS011;59999;51.676;22.650;2023-10-09T00:29:41;6.70;;;1.08;;
72125;SDS011;59999;51.676;22.650;2023-10-09T00:32:13;6.68;;;1.10;;
72125;SDS011;59999;51.676;22.650;2023-10-09T00:34:44;5.47;;;1.15;;
72125;SDS011;59999;51.676;22.650;2023-10-09T00:37:12;5.82;;;1.02;;
72125;SDS011;59999;51.676;22.650;2023-10-09T00:39:51;6.07;;;1.07;;
72125;SDS011;59999;51.676;22.650;2023-10-09T00:42:24;5.55;;;1.35;;
72125;SDS011;59999;51.676;22.650;2023-10-09T00:44:59;6.80;;;1.10;;
72125;SDS011;59999;51.676;22.650;2023-10-09T00:47:31;4.75;;;0.73;;
72125;SDS011;59999;51.676;22.650;2023-10-09T00:50:02;7.75;;;0.95;;
72125;SDS011;59999;51.676;22.650;2023-10-09T00:52:40;7.93;;;1.23;;
72125;SDS011;59999;51.676;22.650;2023-10-09T00:55:17;4.72;;;0.98;;
72125;SDS011;59999;51.676;22.650;2023-10-09T00:57:47;4.75;;;0.93;;
72125;SDS011;59999;51.676;22.650;2023-10-09T01:00:23;5.68;;;0.85;;
72125;SDS011;59999;51.676;22.650;2023-10-09T01:03:03;5.25;;;0.82;;
72125;SDS011;59999;51.676;22.650;2023-10-09T01:08:27;6.25;;;1.15;;
72125;SDS011;59999;51.676;22.650;2023-10-09T01:11:00;5.93;;;0.80;;
72125;SDS011;59999;51.676;22.650;2023-10-09T01:13:39;4.50;;;0.80;;
72125;SDS011;59999;51.676;22.650;2023-10-09T01:16:18;6.45;;;0.90;;
72125;SDS011;59999;51.676;22.650;2023-10-09T01:18:54;5.27;;;1.20;;
72125;SDS011;59999;51.676;22.650;2023-10-09T01:21:24;7.82;;;1.20;;
72125;SDS011;59999;51.676;22.650;2023-10-09T01:23:50;8.63;;;1.02;;
72125;SDS011;59999;51.676;22.650;2023-10-09T01:29:11;6.32;;;1.15;;
72125;SDS011;59999;51.676;22.650;2023-10-09T01:31:51;7.30;;;1.23;;
72125;SDS011;59999;51.676;22.650;2023-10-09T01:37:05;5.07;;;0.95;;
72125;SDS011;59999;51.676;22.650;2023-10-09T01:39:43;7.57;;;1.27;;
72125;SDS011;59999;51.676;22.650;2023-10-09T01:42:10;8.27;;;0.90;;
72125;SDS011;59999;51.676;22.650;2023-10-09T01:44:36;5.60;;;1.30;;
72125;SDS011;59999;51.676;22.650;2023-10-09T01:47:08;5.40;;;0.90;;
72125;SDS011;59999;51.676;22.650;2023-10-09T01:49:39;6.50;;;0.98;;
72125;SDS011;59999;51.676;22.650;2023-10-09T01:52:10;5.60;;;1.30;;
72125;SDS011;59999;51.676;22.650;2023-10-09T01:54:41;7.60;;;1.00;;
72125;SDS011;59999;51.676;22.650;2023-10-09T01:57:07;6.93;;;1.10;;
72125;SDS011;59999;51.676;22.650;2023-10-09T01:59:49;5.10;;;0.90;;
72125;SDS011;59999;51.676;22.650;2023-10-09T02:02:19;5.90;;;1.00;;
72125;SDS011;59999;51.676;22.650;2023-10-09T02:04:55;7.73;;;1.20;;
72125;SDS011;59999;51.676;22.650;2023-10-09T02:07:45;7.85;;;1.00;;
72125;SDS011;59999;51.676;22.650;2023-10-09T02:10:17;5.63;;;1.23;;
72125;SDS011;59999;51.676;22.650;2023-10-09T02:12:51;4.78;;;1.00;;
72125;SDS011;59999;51.676;22.650;2023-10-09T02:15:27;4.63;;;1.00;;
72125;SDS011;59999;51.676;22.650;2023-10-09T02:18:10;7.10;;;1.33;;
72125;SDS011;59999;51.676;22.650;2023-10-09T02:20:52;5.85;;;1.27;;
72125;SDS011;59999;51.676;22.650;2023-10-09T02:23:30;6.15;;;1.30;;
72125;SDS011;59999;51.676;22.650;2023-10-09T02:26:10;6.03;;;1.20;;
72125;SDS011;59999;51.676;22.650;2023-10-09T02:28:45;5.78;;;1.30;;
72125;SDS011;59999;51.676;22.650;2023-10-09T02:31:18;6.90;;;1.17;;
72125;SDS011;59999;51.676;22.650;2023-10-09T02:33:47;6.50;;;1.10;;
72125;SDS011;59999;51.676;22.650;2023-10-09T02:36:16;7.63;;;1.25;;
72125;SDS011;59999;51.676;22.650;2023-10-09T02:38:42;8.18;;;1.38;;
72125;SDS011;59999;51.676;22.650;2023-10-09T02:41:08;6.85;;;1.27;;
72125;SDS011;59999;51.676;22.650;2023-10-09T02:43:37;6.20;;;1.30;;
72125;SDS011;59999;51.676;22.650;2023-10-09T02:46:13;7.10;;;1.38;;
72125;SDS011;59999;51.676;22.650;2023-10-09T02:48:43;6.82;;;1.23;;
72125;SDS011;59999;51.676;22.650;2023-10-09T02:51:22;4.97;;;1.20;;
72125;SDS011;59999;51.676;22.650;2023-10-09T02:53:55;8.70;;;1.52;;
72125;SDS011;59999;51.676;22.650;2023-10-09T02:56:23;5.83;;;1.17;;
72125;SDS011;59999;51.676;22.650;2023-10-09T02:58:59;7.80;;;1.17;;
72125;SDS011;59999;51.676;22.650;2023-10-09T03:01:31;7.40;;;1.20;;
72125;SDS011;59999;51.676;22.650;2023-10-09T03:03:57;5.88;;;1.35;;
72125;SDS011;59999;51.676;22.650;2023-10-09T03:06:27;5.82;;;1.38;;
72125;SDS011;59999;51.676;22.650;2023-10-09T03:08:57;6.40;;;1.37;;
72125;SDS011;59999;51.676;22.650;2023-10-09T03:11:22;5.38;;;1.00;;
72125;SDS011;59999;51.676;22.650;2023-10-09T03:13:48;9.40;;;1.55;;
72125;SDS011;59999;51.676;22.650;2023-10-09T03:16:14;6.70;;;1.53;;
72125;SDS011;59999;51.676;22.650;2023-10-09T03:18:41;6.13;;;1.27;;
72125;SDS011;59999;51.676;22.650;2023-10-09T03:21:07;6.78;;;1.17;;
72125;SDS011;59999;51.676;22.650;2023-10-09T03:23:35;5.60;;;1.20;;
72125;SDS011;59999;51.676;22.650;2023-10-09T03:26:00;9.03;;;1.60;;
72125;SDS011;59999;51.676;22.650;2023-10-09T03:28:26;6.20;;;1.40;;
72125;SDS011;59999;51.676;22.650;2023-10-09T03:30:52;7.63;;;1.50;;
72125;SDS011;59999;51.676;22.650;2023-10-09T03:33:18;9.25;;;1.65;;
72125;SDS011;59999;51.676;22.650;2023-10-09T03:35:44;7.03;;;1.73;;
72125;SDS011;59999;51.676;22.650;2023-10-09T03:38:10;7.32;;;1.90;;
72125;SDS011;59999;51.676;22.650;2023-10-09T03:40:42;11.00;;;2.17;;
72125;SDS011;59999;51.676;22.650;2023-10-09T03:43:09;8.97;;;1.90;;
72125;SDS011;59999;51.676;22.650;2023-10-09T03:45:39;7.65;;;1.80;;
72125;SDS011;59999;51.676;22.650;2023-10-09T03:48:11;8.38;;;2.22;;
72125;SDS011;59999;51.676;22.650;2023-10-09T03:50:57;7.90;;;1.50;;
72125;SDS011;59999;51.676;22.650;2023-10-09T03:53:38;7.00;;;1.77;;
72125;SDS011;59999;51.676;22.650;2023-10-09T03:56:05;5.70;;;1.43;;
72125;SDS011;59999;51.676;22.650;2023-10-09T03:58:39;8.80;;;1.83;;
72125;SDS011;59999;51.676;22.650;2023-10-09T04:01:17;5.63;;;1.25;;
72125;SDS011;59999;51.676;22.650;2023-10-09T04:03:53;6.15;;;1.20;;
72125;SDS011;59999;51.676;22.650;2023-10-09T04:06:25;8.38;;;1.45;;
72125;SDS011;59999;51.676;22.650;2023-10-09T04:08:58;6.33;;;1.60;;
72125;SDS011;59999;51.676;22.650;2023-10-09T04:11:24;7.55;;;1.70;;
72125;SDS011;59999;51.676;22.650;2023-10-09T04:13:51;7.28;;;1.70;;
72125;SDS011;59999;51.676;22.650;2023-10-09T04:16:18;7.28;;;1.70;;
72125;SDS011;59999;51.676;22.650;2023-10-09T04:19:00;7.63;;;1.38;;
72125;SDS011;59999;51.676;22.650;2023-10-09T04:21:36;5.10;;;1.27;;
72125;SDS011;59999;51.676;22.650;2023-10-09T04:24:03;6.30;;;1.58;;
72125;SDS011;59999;51.676;22.650;2023-10-09T04:26:36;6.82;;;1.65;;
72125;SDS011;59999;51.676;22.650;2023-10-09T04:29:03;6.50;;;1.42;;
72125;SDS011;59999;51.676;22.650;2023-10-09T04:31:29;7.53;;;1.70;;
72125;SDS011;59999;51.676;22.650;2023-10-09T04:34:03;9.97;;;2.00;;
72125;SDS011;59999;51.676;22.650;2023-10-09T04:36:50;5.53;;;1.27;;
72125;SDS011;59999;51.676;22.650;2023-10-09T04:39:22;8.57;;;1.70;;
72125;SDS011;59999;51.676;22.650;2023-10-09T04:41:57;7.03;;;1.42;;
72125;SDS011;59999;51.676;22.650;2023-10-09T04:44:42;5.97;;;1.30;;
72125;SDS011;59999;51.676;22.650;2023-10-09T04:47:30;7.63;;;1.70;;
72125;SDS011;59999;51.676;22.650;2023-10-09T04:50:27;7.47;;;1.77;;
72125;SDS011;59999;51.676;22.650;2023-10-09T04:52:56;8.63;;;1.60;;
72125;SDS011;59999;51.676;22.650;2023-10-09T04:55:21;7.03;;;1.50;;
72125;SDS011;59999;51.676;22.650;2023-10-09T04:57:50;7.83;;;1.60;;
72125;SDS011;59999;51.676;22.650;2023-10-09T05:00:39;6.28;;;1.73;;
72125;SDS011;59999;51.676;22.650;2023-10-09T05:03:08;7.70;;;2.05;;
72125;SDS011;59999;51.676;22.650;2023-10-09T05:05:39;6.65;;;1.33;;
72125;SDS011;59999;51.676;22.650;2023-10-09T05:08:08;8.13;;;2.13;;
72125;SDS011;59999;51.676;22.650;2023-10-09T05:10:45;6.83;;;2.00;;
72125;SDS011;59999;51.676;22.650;2023-10-09T05:13:26;8.93;;;2.40;;
72125;SDS011;59999;51.676;22.650;2023-10-09T05:16:05;7.43;;;1.80;;
72125;SDS011;59999;51.676;22.650;2023-10-09T05:18:39;7.43;;;1.60;;
72125;SDS011;59999;51.676;22.650;2023-10-09T05:21:05;9.32;;;1.73;;
72125;SDS011;59999;51.676;22.650;2023-10-09T05:23:51;8.27;;;1.83;;
72125;SDS011;59999;51.676;22.650;2023-10-09T05:26:36;6.88;;;1.30;;
72125;SDS011;59999;51.676;22.650;2023-10-09T05:29:24;9.10;;;2.30;;
72125;SDS011;59999;51.676;22.650;2023-10-09T05:32:05;5.78;;;1.70;;
72125;SDS011;59999;51.676;22.650;2023-10-09T05:34:41;6.30;;;1.63;;
72125;SDS011;59999;51.676;22.650;2023-10-09T05:37:26;8.23;;;1.80;;
72125;SDS011;59999;51.676;22.650;2023-10-09T05:40:00;8.18;;;1.90;;
72125;SDS011;59999;51.676;22.650;2023-10-09T05:42:45;7.20;;;1.45;;
72125;SDS011;59999;51.676;22.650;2023-10-09T05:45:23;9.00;;;1.80;;
72125;SDS011;59999;51.676;22.650;2023-10-09T05:48:07;9.07;;;1.60;;
72125;SDS011;59999;51.676;22.650;2023-10-09T05:50:38;9.30;;;2.10;;
72125;SDS011;59999;51.676;22.650;2023-10-09T05:53:24;7.13;;;1.92;;
72125;SDS011;59999;51.676;22.650;2023-10-09T05:56:23;8.48;;;2.47;;
72125;SDS011;59999;51.676;22.650;2023-10-09T05:58:57;8.30;;;2.03;;
72125;SDS011;59999;51.676;22.650;2023-10-09T06:01:32;5.60;;;1.50;;
72125;SDS011;59999;51.676;22.650;2023-10-09T06:04:16;6.43;;;1.93;;
72125;SDS011;59999;51.676;22.650;2023-10-09T06:06:43;12.00;;;2.45;;
72125;SDS011;59999;51.676;22.650;2023-10-09T06:09:20;9.82;;;2.25;;
72125;SDS011;59999;51.676;22.650;2023-10-09T06:11:47;7.55;;;1.95;;
72125;SDS011;59999;51.676;22.650;2023-10-09T06:14:18;9.25;;;1.98;;
72125;SDS011;59999;51.676;22.650;2023-10-09T06:17:11;8.67;;;2.20;;
72125;SDS011;59999;51.676;22.650;2023-10-09T06:19:37;9.50;;;2.08;;
72125;SDS011;59999;51.676;22.650;2023-10-09T06:22:09;6.63;;;2.25;;
72125;SDS011;59999;51.676;22.650;2023-10-09T06:24:54;8.03;;;2.00;;
72125;SDS011;59999;51.676;22.650;2023-10-09T06:27:20;7.47;;;2.00;;
72125;SDS011;59999;51.676;22.650;2023-10-09T06:29:56;7.72;;;2.20;;
72125;SDS011;59999;51.676;22.650;2023-10-09T06:32:38;9.20;;;2.38;;
72125;SDS011;59999;51.676;22.650;2023-10-09T06:35:14;8.70;;;2.13;;
72125;SDS011;59999;51.676;22.650;2023-10-09T06:37:57;8.10;;;2.50;;
72125;SDS011;59999;51.676;22.650;2023-10-09T06:40:26;9.13;;;3.13;;
72125;SDS011;59999;51.676;22.650;2023-10-09T06:43:02;9.98;;;2.55;;
72125;SDS011;59999;51.676;22.650;2023-10-09T06:45:47;7.40;;;1.90;;
72125;SDS011;59999;51.676;22.650;2023-10-09T06:48:34;8.30;;;1.97;;
72125;SDS011;59999;51.676;22.650;2023-10-09T06:51:03;9.75;;;2.10;;
72125;SDS011;59999;51.676;22.650;2023-10-09T06:53:48;8.03;;;2.30;;
72125;SDS011;59999;51.676;22.650;2023-10-09T06:56:20;11.20;;;2.35;;
72125;SDS011;59999;51.676;22.650;2023-10-09T06:58:56;11.43;;;3.10;;
72125;SDS011;59999;51.676;22.650;2023-10-09T07:01:29;9.70;;;2.38;;
72125;SDS011;59999;51.676;22.650;2023-10-09T07:04:08;10.07;;;2.50;;
72125;SDS011;59999;51.676;22.650;2023-10-09T07:06:52;7.60;;;2.43;;
72125;SDS011;59999;51.676;22.650;2023-10-09T07:09:18;10.30;;;2.80;;
72125;SDS011;59999;51.676;22.650;2023-10-09T07:11:45;9.35;;;2.90;;
72125;SDS011;59999;51.676;22.650;2023-10-09T07:14:20;10.40;;;2.78;;
72125;SDS011;59999;51.676;22.650;2023-10-09T07:16:56;9.18;;;2.92;;
72125;SDS011;59999;51.676;22.650;2023-10-09T07:19:23;8.87;;;2.63;;
72125;SDS011;59999;51.676;22.650;2023-10-09T07:22:10;11.40;;;3.13;;
72125;SDS011;59999;51.676;22.650;2023-10-09T07:24:57;9.68;;;2.90;;
72125;SDS011;59999;51.676;22.650;2023-10-09T07:27:30;8.73;;;2.78;;
72125;SDS011;59999;51.676;22.650;2023-10-09T07:30:17;8.00;;;2.80;;
72125;SDS011;59999;51.676;22.650;2023-10-09T07:35:38;10.70;;;3.22;;
72125;SDS011;59999;51.676;22.650;2023-10-09T07:38:10;12.20;;;3.25;;
72125;SDS011;59999;51.676;22.650;2023-10-09T07:40:37;10.32;;;3.60;;
72125;SDS011;59999;51.676;22.650;2023-10-09T07:43:21;12.90;;;3.58;;
72125;SDS011;59999;51.676;22.650;2023-10-09T07:46:07;12.23;;;3.97;;
72125;SDS011;59999;51.676;22.650;2023-10-09T07:48:51;10.57;;;3.78;;
72125;SDS011;59999;51.676;22.650;2023-10-09T07:51:21;12.23;;;3.55;;
72125;SDS011;59999;51.676;22.650;2023-10-09T07:53:57;9.85;;;3.30;;
72125;SDS011;59999;51.676;22.650;2023-10-09T07:56:34;11.70;;;4.65;;
72125;SDS011;59999;51.676;22.650;2023-10-09T07:59:10;9.73;;;3.03;;
72125;SDS011;59999;51.676;22.650;2023-10-09T08:01:40;11.95;;;3.88;;
72125;SDS011;59999;51.676;22.650;2023-10-09T08:07:06;10.98;;;3.25;;
72125;SDS011;59999;51.676;22.650;2023-10-09T08:09:33;7.65;;;2.58;;
72125;SDS011;59999;51.676;22.650;2023-10-09T08:12:15;14.33;;;3.90;;
72125;SDS011;59999;51.676;22.650;2023-10-09T08:14:59;11.60;;;3.63;;
72125;SDS011;59999;51.676;22.650;2023-10-09T08:17:46;11.45;;;4.10;;
72125;SDS011;59999;51.676;22.650;2023-10-09T08:20:16;11.52;;;4.07;;
72125;SDS011;59999;51.676;22.650;2023-10-09T08:22:43;12.55;;;4.68;;
72125;SDS011;59999;51.676;22.650;2023-10-09T08:25:09;15.77;;;5.23;;
72125;SDS011;59999;51.676;22.650;2023-10-09T08:27:52;13.00;;;4.20;;
72125;SDS011;59999;51.676;22.650;2023-10-09T08:30:23;13.60;;;4.45;;
72125;SDS011;59999;51.676;22.650;2023-10-09T08:32:50;15.88;;;6.45;;
72125;SDS011;59999;51.676;22.650;2023-10-09T08:35:28;15.40;;;5.10;;
72125;SDS011;59999;51.676;22.650;2023-10-09T08:38:01;15.63;;;5.60;;
72125;SDS011;59999;51.676;22.650;2023-10-09T08:40:40;14.18;;;5.53;;
72125;SDS011;59999;51.676;22.650;2023-10-09T08:45:41;13.93;;;4.60;;
72125;SDS011;59999;51.676;22.650;2023-10-09T08:48:12;11.05;;;3.35;;
72125;SDS011;59999;51.676;22.650;2023-10-09T08:50:46;12.60;;;3.93;;
72125;SDS011;59999;51.676;22.650;2023-10-09T08:53:21;15.30;;;4.75;;
72125;SDS011;59999;51.676;22.650;2023-10-09T08:55:49;10.98;;;4.30;;
72125;SDS011;59999;51.676;22.650;2023-10-09T08:58:16;10.18;;;3.50;;
72125;SDS011;59999;51.676;22.650;2023-10-09T09:00:57;19.88;;;5.78;;
72125;SDS011;59999;51.676;22.650;2023-10-09T09:03:26;8.90;;;3.33;;
72125;SDS011;59999;51.676;22.650;2023-10-09T09:05:58;12.93;;;4.63;;
72125;SDS011;59999;51.676;22.650;2023-10-09T09:08:29;13.45;;;4.95;;
72125;SDS011;59999;51.676;22.650;2023-10-09T09:10:59;25.25;;;7.55;;
72125;SDS011;59999;51.676;22.650;2023-10-09T09:13:39;14.75;;;3.83;;
72125;SDS011;59999;51.676;22.650;2023-10-09T09:16:22;9.35;;;3.45;;
72125;SDS011;59999;51.676;22.650;2023-10-09T09:18:56;10.32;;;3.55;;
72125;SDS011;59999;51.676;22.650;2023-10-09T09:21:31;15.70;;;6.80;;
72125;SDS011;59999;51.676;22.650;2023-10-09T09:24:04;11.38;;;4.22;;
72125;SDS011;59999;51.676;22.650;2023-10-09T09:27:09;10.27;;;3.55;;
72125;SDS011;59999;51.676;22.650;2023-10-09T09:29:57;14.68;;;5.00;;
72125;SDS011;59999;51.676;22.650;2023-10-09T09:32:30;11.27;;;3.50;;
72125;SDS011;59999;51.676;22.650;2023-10-09T09:35:04;12.10;;;4.05;;
72125;SDS011;59999;51.676;22.650;2023-10-09T09:37:32;8.23;;;2.85;;
72125;SDS011;59999;51.676;22.650;2023-10-09T09:40:07;8.98;;;3.60;;
72125;SDS011;59999;51.676;22.650;2023-10-09T09:42:52;12.18;;;4.15;;
72125;SDS011;59999;51.676;22.650;2023-10-09T09:45:22;13.13;;;3.50;;
72125;SDS011;59999;51.676;22.650;2023-10-09T09:47:49;11.85;;;3.20;;
72125;SDS011;59999;51.676;22.650;2023-10-09T09:50:18;19.17;;;6.90;;
72125;SDS011;59999;51.676;22.650;2023-10-09T09:52:54;31.08;;;13.85;;
72125;SDS011;59999;51.676;22.650;2023-10-09T09:55:34;12.63;;;3.92;;
72125;SDS011;59999;51.676;22.650;2023-10-09T09:58:07;9.60;;;2.88;;
72125;SDS011;59999;51.676;22.650;2023-10-09T10:00:44;7.43;;;2.40;;
72125;SDS011;59999;51.676;22.650;2023-10-09T10:03:30;9.25;;;3.03;;
72125;SDS011;59999;51.676;22.650;2023-10-09T10:06:00;7.55;;;2.42;;
72125;SDS011;59999;51.676;22.650;2023-10-09T10:08:35;7.38;;;2.80;;
72125;SDS011;59999;51.676;22.650;2023-10-09T10:11:01;9.10;;;2.30;;
72125;SDS011;59999;51.676;22.650;2023-10-09T10:18:52;10.50;;;3.42;;
72125;SDS011;59999;51.676;22.650;2023-10-09T10:21:19;9.50;;;2.08;;
72125;SDS011;59999;51.676;22.650;2023-10-09T10:24:01;8.50;;;2.50;;
72125;SDS011;59999;51.676;22.650;2023-10-09T10:26:36;8.02;;;2.90;;
72125;SDS011;59999;51.676;22.650;2023-10-09T10:29:20;9.63;;;3.57;;
72125;SDS011;59999;51.676;22.650;2023-10-09T10:34:21;8.77;;;3.20;;
72125;SDS011;59999;51.676;22.650;2023-10-09T10:36:52;9.90;;;3.28;;
72125;SDS011;59999;51.676;22.650;2023-10-09T10:39:24;11.65;;;3.15;;
72125;SDS011;59999;51.676;22.650;2023-10-09T10:42:08;8.23;;;3.03;;
72125;SDS011;59999;51.676;22.650;2023-10-09T10:44:35;9.10;;;2.83;;
72125;SDS011;59999;51.676;22.650;2023-10-09T10:47:08;9.45;;;2.70;;
72125;SDS011;59999;51.676;22.650;2023-10-09T10:49:57;8.82;;;3.00;;
72125;SDS011;59999;51.676;22.650;2023-10-09T10:52:25;14.80;;;6.88;;
72125;SDS011;59999;51.676;22.650;2023-10-09T10:55:13;10.07;;;3.23;;
72125;SDS011;59999;51.676;22.650;2023-10-09T10:57:55;8.45;;;1.83;;
72125;SDS011;59999;51.676;22.650;2023-10-09T11:00:28;6.07;;;1.60;;
72125;SDS011;59999;51.676;22.650;2023-10-09T11:03:17;6.03;;;1.75;;
72125;SDS011;59999;51.676;22.650;2023-10-09T11:06:03;11.02;;;2.42;;
72125;SDS011;59999;51.676;22.650;2023-10-09T11:08:47;6.50;;;1.83;;
72125;SDS011;59999;51.676;22.650;2023-10-09T11:11:34;6.28;;;1.60;;
72125;SDS011;59999;51.676;22.650;2023-10-09T11:14:09;7.68;;;1.88;;
72125;SDS011;59999;51.676;22.650;2023-10-09T11:16:58;8.32;;;2.20;;
72125;SDS011;59999;51.676;22.650;2023-10-09T11:19:28;22.65;;;6.30;;
72125;SDS011;59999;51.676;22.650;2023-10-09T11:21:57;24.47;;;7.23;;
72125;SDS011;59999;51.676;22.650;2023-10-09T11:24:45;26.10;;;10.40;;
72125;SDS011;59999;51.676;22.650;2023-10-09T11:27:24;16.63;;;6.78;;
72125;SDS011;59999;51.676;22.650;2023-10-09T11:29:54;8.25;;;1.63;;
72125;SDS011;59999;51.676;22.650;2023-10-09T11:32:20;6.57;;;1.57;;
72125;SDS011;59999;51.676;22.650;2023-10-09T11:34:51;4.50;;;0.95;;
72125;SDS011;59999;51.676;22.650;2023-10-09T11:37:35;5.57;;;1.27;;
72125;SDS011;59999;51.676;22.650;2023-10-09T11:40:05;5.30;;;1.25;;
72125;SDS011;59999;51.676;22.650;2023-10-09T11:42:48;3.33;;;0.90;;
72125;SDS011;59999;51.676;22.650;2023-10-09T11:45:25;5.37;;;0.83;;
72125;SDS011;59999;51.676;22.650;2023-10-09T11:47:55;4.95;;;0.90;;
72125;SDS011;59999;51.676;22.650;2023-10-09T11:53:14;5.85;;;0.90;;
72125;SDS011;59999;51.676;22.650;2023-10-09T11:55:49;4.70;;;0.95;;
72125;SDS011;59999;51.676;22.650;2023-10-09T11:58:17;6.60;;;0.80;;
72125;SDS011;59999;51.676;22.650;2023-10-09T12:00:53;5.15;;;1.20;;
72125;SDS011;59999;51.676;22.650;2023-10-09T12:03:27;5.00;;;0.88;;
72125;SDS011;59999;51.676;22.650;2023-10-09T12:05:59;5.30;;;0.95;;
72125;SDS011;59999;51.676;22.650;2023-10-09T12:08:37;5.38;;;1.42;;
72125;SDS011;59999;51.676;22.650;2023-10-09T12:11:07;5.97;;;1.20;;
72125;SDS011;59999;51.676;22.650;2023-10-09T12:13:37;9.57;;;1.30;;
72125;SDS011;59999;51.676;22.650;2023-10-09T12:16:09;6.63;;;1.50;;
72125;SDS011;59999;51.676;22.650;2023-10-09T12:18:35;5.43;;;1.20;;
72125;SDS011;59999;51.676;22.650;2023-10-09T12:21:02;5.07;;;1.05;;
72125;SDS011;59999;51.676;22.650;2023-10-09T12:23:29;5.75;;;1.15;;
72125;SDS011;59999;51.676;22.650;2023-10-09T12:26:01;6.20;;;1.13;;
72125;SDS011;59999;51.676;22.650;2023-10-09T12:28:28;6.32;;;1.35;;
72125;SDS011;59999;51.676;22.650;2023-10-09T12:30:55;5.80;;;1.00;;
72125;SDS011;59999;51.676;22.650;2023-10-09T12:33:27;5.63;;;1.20;;
72125;SDS011;59999;51.676;22.650;2023-10-09T12:35:54;6.75;;;1.50;;
72125;SDS011;59999;51.676;22.650;2023-10-09T12:38:28;15.25;;;1.80;;
72125;SDS011;59999;51.676;22.650;2023-10-09T12:41:04;6.65;;;1.25;;
72125;SDS011;59999;51.676;22.650;2023-10-09T12:43:43;5.90;;;1.50;;
72125;SDS011;59999;51.676;22.650;2023-10-09T12:46:09;6.88;;;1.30;;
72125;SDS011;59999;51.676;22.650;2023-10-09T12:48:34;9.50;;;1.60;;
72125;SDS011;59999;51.676;22.650;2023-10-09T12:51:02;6.35;;;1.70;;
72125;SDS011;59999;51.676;22.650;2023-10-09T12:53:34;7.90;;;1.80;;
72125;SDS011;59999;51.676;22.650;2023-10-09T12:56:00;7.10;;;1.20;;
72125;SDS011;59999;51.676;22.650;2023-10-09T12:58:25;6.07;;;1.33;;
72125;SDS011;59999;51.676;22.650;2023-10-09T13:00:52;6.47;;;2.20;;
72125;SDS011;59999;51.676;22.650;2023-10-09T13:03:18;7.27;;;2.10;;
72125;SDS011;59999;51.676;22.650;2023-10-09T13:05:46;8.45;;;2.75;;
72125;SDS011;59999;51.676;22.650;2023-10-09T13:08:23;47.50;;;22.95;;
72125;SDS011;59999;51.676;22.650;2023-10-09T13:10:57;11.82;;;4.45;;
72125;SDS011;59999;51.676;22.650;2023-10-09T13:13:29;10.38;;;4.13;;
72125;SDS011;59999;51.676;22.650;2023-10-09T13:16:27;22.83;;;13.30;;
72125;SDS011;59999;51.676;22.650;2023-10-09T13:18:54;7.70;;;2.47;;
72125;SDS011;59999;51.676;22.650;2023-10-09T13:21:26;10.23;;;2.65;;
72125;SDS011;59999;51.676;22.650;2023-10-09T13:23:52;15.48;;;6.43;;
72125;SDS011;59999;51.676;22.650;2023-10-09T13:26:20;12.07;;;4.82;;
72125;SDS011;59999;51.676;22.650;2023-10-09T13:28:56;13.68;;;4.72;;
72125;SDS011;59999;51.676;22.650;2023-10-09T13:31:24;27.98;;;10.85;;
72125;SDS011;59999;51.676;22.650;2023-10-09T13:33:54;31.08;;;12.93;;
72125;SDS011;59999;51.676;22.650;2023-10-09T13:36:21;12.15;;;3.67;;
72125;SDS011;59999;51.676;22.650;2023-10-09T13:41:23;17.10;;;5.85;;
72125;SDS011;59999;51.676;22.650;2023-10-09T13:43:54;42.17;;;20.27;;
72125;SDS011;59999;51.676;22.650;2023-10-09T13:46:22;21.10;;;6.93;;
72125;SDS011;59999;51.676;22.650;2023-10-09T13:48:49;16.67;;;5.10;;
72125;SDS011;59999;51.676;22.650;2023-10-09T13:51:18;13.25;;;4.75;;
72125;SDS011;59999;51.676;22.650;2023-10-09T13:53:44;17.15;;;5.45;;
72125;SDS011;59999;51.676;22.650;2023-10-09T13:56:18;17.42;;;6.72;;
72125;SDS011;59999;51.676;22.650;2023-10-09T13:58:48;17.13;;;6.03;;
72125;SDS011;59999;51.676;22.650;2023-10-09T14:01:20;12.55;;;5.07;;
72125;SDS011;59999;51.676;22.650;2023-10-09T14:03:56;12.85;;;4.78;;
72125;SDS011;59999;51.676;22.650;2023-10-09T14:06:23;12.27;;;5.03;;
72125;SDS011;59999;51.676;22.650;2023-10-09T14:08:59;13.10;;;5.10;;
72125;SDS011;59999;51.676;22.650;2023-10-09T14:11:27;14.83;;;4.83;;
72125;SDS011;59999;51.676;22.650;2023-10-09T14:13:53;13.68;;;5.32;;
72125;SDS011;59999;51.676;22.650;2023-10-09T14:16:19;13.37;;;4.80;;
72125;SDS011;59999;51.676;22.650;2023-10-09T14:18:53;12.88;;;3.47;;
72125;SDS011;59999;51.676;22.650;2023-10-09T14:21:23;12.60;;;3.75;;
72125;SDS011;59999;51.676;22.650;2023-10-09T14:23:53;11.82;;;4.18;;
72125;SDS011;59999;51.676;22.650;2023-10-09T14:26:23;22.83;;;8.40;;
72125;SDS011;59999;51.676;22.650;2023-10-09T14:28:52;24.67;;;9.65;;
72125;SDS011;59999;51.676;22.650;2023-10-09T14:31:23;84.47;;;30.73;;
72125;SDS011;59999;51.676;22.650;2023-10-09T14:33:53;95.75;;;33.78;;
72125;SDS011;59999;51.676;22.650;2023-10-09T14:36:20;55.35;;;19.13;;
72125;SDS011;59999;51.676;22.650;2023-10-09T14:38:58;34.97;;;12.13;;
72125;SDS011;59999;51.676;22.650;2023-10-09T14:41:25;64.97;;;20.38;;
72125;SDS011;59999;51.676;22.650;2023-10-09T14:43:52;83.22;;;34.92;;
72125;SDS011;59999;51.676;22.650;2023-10-09T14:46:18;92.72;;;31.63;;
72125;SDS011;59999;51.676;22.650;2023-10-09T14:48:55;91.00;;;29.15;;
72125;SDS011;59999;51.676;22.650;2023-10-09T14:51:21;77.75;;;28.63;;
72125;SDS011;59999;51.676;22.650;2023-10-09T14:53:54;64.82;;;23.90;;
72125;SDS011;59999;51.676;22.650;2023-10-09T14:56:25;75.30;;;26.65;;
72125;SDS011;59999;51.676;22.650;2023-10-09T14:58:57;67.65;;;23.55;;
72125;SDS011;59999;51.676;22.650;2023-10-09T15:01:27;33.70;;;11.63;;
72125;SDS011;59999;51.676;22.650;2023-10-09T15:03:59;64.50;;;21.92;;
72125;SDS011;59999;51.676;22.650;2023-10-09T15:06:28;32.30;;;13.82;;
72125;SDS011;59999;51.676;22.650;2023-10-09T15:08:59;25.27;;;10.32;;
72125;SDS011;59999;51.676;22.650;2023-10-09T15:11:33;26.38;;;9.80;;
72125;SDS011;59999;51.676;22.650;2023-10-09T15:13:59;23.40;;;10.23;;
72125;SDS011;59999;51.676;22.650;2023-10-09T15:16:25;28.98;;;10.50;;
72125;SDS011;59999;51.676;22.650;2023-10-09T15:18:56;29.95;;;11.20;;
72125;SDS011;59999;51.676;22.650;2023-10-09T15:21:28;33.35;;;13.05;;
72125;SDS011;59999;51.676;22.650;2023-10-09T15:23:57;26.70;;;11.38;;
72125;SDS011;59999;51.676;22.650;2023-10-09T15:26:24;26.05;;;12.43;;
72125;SDS011;59999;51.676;22.650;2023-10-09T15:28:51;71.18;;;30.40;;
72125;SDS011;59999;51.676;22.650;2023-10-09T15:31:17;44.83;;;19.90;;
72125;SDS011;59999;51.676;22.650;2023-10-09T15:33:44;39.33;;;17.38;;
72125;SDS011;59999;51.676;22.650;2023-10-09T15:36:13;44.08;;;17.40;;